sensor_id;sensor_type;location;lat;lon;timestamp;P1;durP1;ratioP1;P2;durP2;ratioP2
21152;SDS011;10734;44.792;20.482;2023-08-06T00:01:35;15.77;;;14.15;;
21152;SDS011;10734;44.792;20.482;2023-08-06T00:04:02;14.43;;;13.02;;
21152;SDS011;10734;44.792;20.482;2023-08-06T00:06:28;14.95;;;13.50;;
21152;SDS011;10734;44.792;20.482;2023-08-06T00:08:55;18.35;;;15.77;;
21152;SDS011;10734;44.792;20.482;2023-08-06T00:11:22;18.50;;;14.43;;
21152;SDS011;10734;44.792;20.482;2023-08-06T00:13:49;17.75;;;15.45;;
21152;SDS011;10734;44.792;20.482;2023-08-06T00:16:15;18.27;;;14.98;;
21152;SDS011;10734;44.792;20.482;2023-08-06T00:18:42;19.73;;;14.52;;
21152;SDS011;10734;44.792;20.482;2023-08-06T00:21:08;17.52;;;13.75;;
21152;SDS011;10734;44.792;20.482;2023-08-06T00:23:35;18.13;;;16.23;;
21152;SDS011;10734;44.792;20.482;2023-08-06T00:26:02;18.33;;;16.20;;
21152;SDS011;10734;44.792;20.482;2023-08-06T00:28:28;20.35;;;17.73;;
21152;SDS011;10734;44.792;20.482;2023-08-06T00:30:55;18.42;;;16.38;;
21152;SDS011;10734;44.792;20.482;2023-08-06T00:33:22;20.10;;;17.98;;
21152;SDS011;10734;44.792;20.482;2023-08-06T00:35:49;16.98;;;15.20;;
21152;SDS011;10734;44.792;20.482;2023-08-06T00:38:15;21.17;;;16.92;;
21152;SDS011;10734;44.792;20.482;2023-08-06T00:40:42;17.90;;;14.82;;
21152;SDS011;10734;44.792;20.482;2023-08-06T00:43:08;23.23;;;19.38;;
21152;SDS011;10734;44.792;20.482;2023-08-06T00:45:35;23.52;;;18.85;;
21152;SDS011;10734;44.792;20.482;2023-08-06T00:48:03;23.55;;;20.08;;
21152;SDS011;10734;44.792;20.482;2023-08-06T00:50:30;24.13;;;19.83;;
21152;SDS011;10734;44.792;20.482;2023-08-06T00:52:57;21.75;;;17.98;;
21152;SDS011;10734;44.792;20.482;2023-08-06T00:55:24;24.48;;;21.63;;
21152;SDS011;10734;44.792;20.482;2023-08-06T00:57:50;25.23;;;20.75;;
21152;SDS011;10734;44.792;20.482;2023-08-06T01:00:19;28.17;;;22.70;;
21152;SDS011;10734;44.792;20.482;2023-08-06T01:02:46;26.25;;;22.40;;
21152;SDS011;10734;44.792;20.482;2023-08-06T01:05:12;29.25;;;22.60;;
21152;SDS011;10734;44.792;20.482;2023-08-06T01:18:10;21.98;;;17.58;;
21152;SDS011;10734;44.792;20.482;2023-08-06T01:20:37;20.42;;;15.50;;
21152;SDS011;10734;44.792;20.482;2023-08-06T01:23:03;18.83;;;16.83;;
21152;SDS011;10734;44.792;20.482;2023-08-06T01:25:33;15.88;;;13.95;;
21152;SDS011;10734;44.792;20.482;2023-08-06T01:28:03;16.58;;;14.88;;
21152;SDS011;10734;44.792;20.482;2023-08-06T01:30:31;16.40;;;14.23;;
21152;SDS011;10734;44.792;20.482;2023-08-06T01:33:04;15.35;;;13.75;;
21152;SDS011;10734;44.792;20.482;2023-08-06T01:35:30;16.48;;;14.77;;
21152;SDS011;10734;44.792;20.482;2023-08-06T01:37:59;18.77;;;15.82;;
21152;SDS011;10734;44.792;20.482;2023-08-06T01:40:26;16.02;;;14.30;;
21152;SDS011;10734;44.792;20.482;2023-08-06T01:42:54;15.02;;;13.52;;
21152;SDS011;10734;44.792;20.482;2023-08-06T01:45:21;17.00;;;15.27;;
21152;SDS011;10734;44.792;20.482;2023-08-06T01:47:47;18.65;;;14.82;;
21152;SDS011;10734;44.792;20.482;2023-08-06T01:50:14;16.70;;;13.57;;
21152;SDS011;10734;44.792;20.482;2023-08-06T01:52:40;17.02;;;14.60;;
21152;SDS011;10734;44.792;20.482;2023-08-06T01:55:07;17.92;;;13.98;;
21152;SDS011;10734;44.792;20.482;2023-08-06T01:57:34;14.45;;;12.82;;
21152;SDS011;10734;44.792;20.482;2023-08-06T02:00:00;12.05;;;10.57;;
21152;SDS011;10734;44.792;20.482;2023-08-06T02:02:27;13.00;;;11.65;;
21152;SDS011;10734;44.792;20.482;2023-08-06T02:04:53;18.38;;;11.10;;
21152;SDS011;10734;44.792;20.482;2023-08-06T02:07:20;11.52;;;10.43;;
21152;SDS011;10734;44.792;20.482;2023-08-06T02:09:47;11.35;;;10.25;;
21152;SDS011;10734;44.792;20.482;2023-08-06T02:12:13;10.40;;;9.38;;
21152;SDS011;10734;44.792;20.482;2023-08-06T02:14:40;11.85;;;10.30;;
21152;SDS011;10734;44.792;20.482;2023-08-06T02:17:06;13.48;;;11.25;;
21152;SDS011;10734;44.792;20.482;2023-08-06T02:19:33;11.90;;;10.25;;
21152;SDS011;10734;44.792;20.482;2023-08-06T02:22:00;11.82;;;10.63;;
21152;SDS011;10734;44.792;20.482;2023-08-06T02:24:26;12.10;;;10.20;;
21152;SDS011;10734;44.792;20.482;2023-08-06T02:26:53;11.77;;;9.68;;
21152;SDS011;10734;44.792;20.482;2023-08-06T02:29:22;13.60;;;9.88;;
21152;SDS011;10734;44.792;20.482;2023-08-06T02:31:48;10.85;;;8.25;;
21152;SDS011;10734;44.792;20.482;2023-08-06T02:34:15;11.95;;;8.70;;
21152;SDS011;10734;44.792;20.482;2023-08-06T02:36:42;9.77;;;8.70;;
21152;SDS011;10734;44.792;20.482;2023-08-06T02:39:08;9.85;;;7.97;;
21152;SDS011;10734;44.792;20.482;2023-08-06T02:41:35;8.20;;;7.43;;
21152;SDS011;10734;44.792;20.482;2023-08-06T02:44:01;8.43;;;7.35;;
21152;SDS011;10734;44.792;20.482;2023-08-06T02:46:29;7.95;;;7.25;;
21152;SDS011;10734;44.792;20.482;2023-08-06T02:48:55;7.78;;;7.07;;
21152;SDS011;10734;44.792;20.482;2023-08-06T02:51:22;7.25;;;6.55;;
21152;SDS011;10734;44.792;20.482;2023-08-06T02:53:48;7.68;;;6.68;;
21152;SDS011;10734;44.792;20.482;2023-08-06T02:56:15;7.97;;;6.85;;
21152;SDS011;10734;44.792;20.482;2023-08-06T02:58:42;7.65;;;6.50;;
21152;SDS011;10734;44.792;20.482;2023-08-06T03:01:08;6.20;;;5.60;;
21152;SDS011;10734;44.792;20.482;2023-08-06T03:03:35;7.45;;;6.13;;
21152;SDS011;10734;44.792;20.482;2023-08-06T03:06:02;8.38;;;5.28;;
21152;SDS011;10734;44.792;20.482;2023-08-06T03:08:28;5.47;;;4.97;;
21152;SDS011;10734;44.792;20.482;2023-08-06T03:10:55;6.88;;;5.50;;
21152;SDS011;10734;44.792;20.482;2023-08-06T03:13:21;5.35;;;4.55;;
21152;SDS011;10734;44.792;20.482;2023-08-06T03:15:54;7.32;;;4.72;;
21152;SDS011;10734;44.792;20.482;2023-08-06T03:18:21;4.90;;;4.40;;
21152;SDS011;10734;44.792;20.482;2023-08-06T03:20:48;5.57;;;4.93;;
21152;SDS011;10734;44.792;20.482;2023-08-06T03:23:14;5.93;;;4.75;;
21152;SDS011;10734;44.792;20.482;2023-08-06T03:25:41;5.45;;;4.95;;
21152;SDS011;10734;44.792;20.482;2023-08-06T03:28:08;6.60;;;4.43;;
21152;SDS011;10734;44.792;20.482;2023-08-06T03:30:34;8.02;;;4.57;;
21152;SDS011;10734;44.792;20.482;2023-08-06T03:33:01;6.10;;;4.35;;
21152;SDS011;10734;44.792;20.482;2023-08-06T03:35:27;6.78;;;5.43;;
21152;SDS011;10734;44.792;20.482;2023-08-06T03:37:54;15.32;;;4.22;;
21152;SDS011;10734;44.792;20.482;2023-08-06T03:40:21;4.53;;;3.88;;
21152;SDS011;10734;44.792;20.482;2023-08-06T03:42:47;6.93;;;4.15;;
21152;SDS011;10734;44.792;20.482;2023-08-06T03:45:14;4.80;;;4.30;;
21152;SDS011;10734;44.792;20.482;2023-08-06T03:47:40;6.78;;;3.97;;
21152;SDS011;10734;44.792;20.482;2023-08-06T03:50:07;4.13;;;3.70;;
21152;SDS011;10734;44.792;20.482;2023-08-06T03:52:34;5.00;;;4.50;;
21152;SDS011;10734;44.792;20.482;2023-08-06T03:55:00;6.78;;;3.95;;
21152;SDS011;10734;44.792;20.482;2023-08-06T03:57:27;6.80;;;4.05;;
21152;SDS011;10734;44.792;20.482;2023-08-06T03:59:53;5.28;;;4.07;;
21152;SDS011;10734;44.792;20.482;2023-08-06T04:02:21;4.97;;;3.78;;
21152;SDS011;10734;44.792;20.482;2023-08-06T04:04:47;6.50;;;4.25;;
21152;SDS011;10734;44.792;20.482;2023-08-06T04:07:14;5.80;;;4.05;;
21152;SDS011;10734;44.792;20.482;2023-08-06T04:09:59;9.35;;;3.85;;
21152;SDS011;10734;44.792;20.482;2023-08-06T04:12:26;7.68;;;5.47;;
21152;SDS011;10734;44.792;20.482;2023-08-06T04:14:53;5.28;;;4.10;;
21152;SDS011;10734;44.792;20.482;2023-08-06T04:17:20;6.40;;;5.68;;
21152;SDS011;10734;44.792;20.482;2023-08-06T04:19:48;7.18;;;4.88;;
21152;SDS011;10734;44.792;20.482;2023-08-06T04:22:15;6.03;;;4.60;;
21152;SDS011;10734;44.792;20.482;2023-08-06T04:24:42;5.15;;;4.13;;
21152;SDS011;10734;44.792;20.482;2023-08-06T04:27:09;4.43;;;3.95;;
21152;SDS011;10734;44.792;20.482;2023-08-06T04:29:36;5.45;;;4.38;;
21152;SDS011;10734;44.792;20.482;2023-08-06T04:32:06;6.13;;;4.80;;
21152;SDS011;10734;44.792;20.482;2023-08-06T04:34:33;4.82;;;4.18;;
21152;SDS011;10734;44.792;20.482;2023-08-06T04:37:00;4.75;;;4.28;;
21152;SDS011;10734;44.792;20.482;2023-08-06T04:39:27;6.38;;;4.22;;
21152;SDS011;10734;44.792;20.482;2023-08-06T04:41:54;11.90;;;3.83;;
21152;SDS011;10734;44.792;20.482;2023-08-06T04:44:21;5.00;;;3.65;;
21152;SDS011;10734;44.792;20.482;2023-08-06T04:46:48;5.82;;;3.97;;
21152;SDS011;10734;44.792;20.482;2023-08-06T04:49:14;7.70;;;4.28;;
21152;SDS011;10734;44.792;20.482;2023-08-06T04:51:41;6.55;;;4.30;;
21152;SDS011;10734;44.792;20.482;2023-08-06T04:54:07;3.78;;;3.47;;
21152;SDS011;10734;44.792;20.482;2023-08-06T04:56:34;7.10;;;4.97;;
21152;SDS011;10734;44.792;20.482;2023-08-06T04:59:00;5.53;;;4.25;;
21152;SDS011;10734;44.792;20.482;2023-08-06T05:01:27;5.85;;;4.38;;
21152;SDS011;10734;44.792;20.482;2023-08-06T05:03:54;6.18;;;4.13;;
21152;SDS011;10734;44.792;20.482;2023-08-06T05:06:21;4.72;;;3.80;;
21152;SDS011;10734;44.792;20.482;2023-08-06T05:08:48;10.52;;;4.00;;
21152;SDS011;10734;44.792;20.482;2023-08-06T05:11:14;5.50;;;3.88;;
21152;SDS011;10734;44.792;20.482;2023-08-06T05:13:41;5.95;;;4.40;;
21152;SDS011;10734;44.792;20.482;2023-08-06T05:16:07;6.50;;;5.38;;
21152;SDS011;10734;44.792;20.482;2023-08-06T05:18:34;5.60;;;4.55;;
21152;SDS011;10734;44.792;20.482;2023-08-06T05:21:01;8.25;;;4.82;;
21152;SDS011;10734;44.792;20.482;2023-08-06T05:23:27;9.07;;;5.50;;
21152;SDS011;10734;44.792;20.482;2023-08-06T05:25:54;9.18;;;6.05;;
21152;SDS011;10734;44.792;20.482;2023-08-06T05:28:20;6.60;;;5.05;;
21152;SDS011;10734;44.792;20.482;2023-08-06T05:30:47;6.70;;;5.97;;
21152;SDS011;10734;44.792;20.482;2023-08-06T05:33:13;10.10;;;5.63;;
21152;SDS011;10734;44.792;20.482;2023-08-06T05:35:40;8.07;;;6.25;;
21152;SDS011;10734;44.792;20.482;2023-08-06T05:38:07;7.40;;;6.70;;
21152;SDS011;10734;44.792;20.482;2023-08-06T05:40:34;11.40;;;7.47;;
21152;SDS011;10734;44.792;20.482;2023-08-06T05:43:00;8.25;;;7.55;;
21152;SDS011;10734;44.792;20.482;2023-08-06T05:45:27;9.40;;;7.50;;
21152;SDS011;10734;44.792;20.482;2023-08-06T05:47:53;9.63;;;8.25;;
21152;SDS011;10734;44.792;20.482;2023-08-06T05:50:24;11.63;;;10.15;;
21152;SDS011;10734;44.792;20.482;2023-08-06T05:52:51;14.07;;;11.13;;
21152;SDS011;10734;44.792;20.482;2023-08-06T05:55:18;12.55;;;11.32;;
21152;SDS011;10734;44.792;20.482;2023-08-06T05:57:45;19.13;;;14.05;;
21152;SDS011;10734;44.792;20.482;2023-08-06T06:00:11;16.52;;;12.15;;
21152;SDS011;10734;44.792;20.482;2023-08-06T06:02:38;18.42;;;13.95;;
21152;SDS011;10734;44.792;20.482;2023-08-06T06:05:04;17.13;;;13.88;;
21152;SDS011;10734;44.792;20.482;2023-08-06T06:07:31;15.23;;;13.07;;
21152;SDS011;10734;44.792;20.482;2023-08-06T06:09:58;15.55;;;13.95;;
21152;SDS011;10734;44.792;20.482;2023-08-06T06:12:24;17.15;;;13.77;;
21152;SDS011;10734;44.792;20.482;2023-08-06T06:14:52;14.80;;;12.75;;
21152;SDS011;10734;44.792;20.482;2023-08-06T06:17:19;18.88;;;14.50;;
21152;SDS011;10734;44.792;20.482;2023-08-06T06:19:46;16.65;;;14.50;;
21152;SDS011;10734;44.792;20.482;2023-08-06T06:22:13;18.15;;;14.25;;
21152;SDS011;10734;44.792;20.482;2023-08-06T06:24:40;16.75;;;14.93;;
21152;SDS011;10734;44.792;20.482;2023-08-06T06:27:06;17.30;;;15.38;;
21152;SDS011;10734;44.792;20.482;2023-08-06T06:29:33;19.13;;;15.50;;
21152;SDS011;10734;44.792;20.482;2023-08-06T06:31:59;19.95;;;16.98;;
21152;SDS011;10734;44.792;20.482;2023-08-06T06:34:26;16.75;;;14.77;;
21152;SDS011;10734;44.792;20.482;2023-08-06T06:36:52;19.88;;;15.88;;
21152;SDS011;10734;44.792;20.482;2023-08-06T06:39:19;15.95;;;14.25;;
21152;SDS011;10734;44.792;20.482;2023-08-06T06:41:45;15.93;;;14.35;;
21152;SDS011;10734;44.792;20.482;2023-08-06T06:44:13;14.52;;;13.13;;
21152;SDS011;10734;44.792;20.482;2023-08-06T06:46:39;16.88;;;14.77;;
21152;SDS011;10734;44.792;20.482;2023-08-06T06:49:06;15.07;;;13.48;;
21152;SDS011;10734;44.792;20.482;2023-08-06T06:51:32;20.48;;;13.57;;
21152;SDS011;10734;44.792;20.482;2023-08-06T06:53:59;14.20;;;12.63;;
21152;SDS011;10734;44.792;20.482;2023-08-06T06:56:25;20.42;;;12.73;;
21152;SDS011;10734;44.792;20.482;2023-08-06T06:58:52;18.52;;;13.10;;
21152;SDS011;10734;44.792;20.482;2023-08-06T07:01:18;13.35;;;11.82;;
21152;SDS011;10734;44.792;20.482;2023-08-06T07:03:45;12.23;;;11.02;;
21152;SDS011;10734;44.792;20.482;2023-08-06T07:06:12;16.80;;;11.10;;
21152;SDS011;10734;44.792;20.482;2023-08-06T07:08:39;11.75;;;10.50;;
21152;SDS011;10734;44.792;20.482;2023-08-06T07:11:05;13.93;;;11.18;;
21152;SDS011;10734;44.792;20.482;2023-08-06T07:13:33;11.75;;;10.55;;
21152;SDS011;10734;44.792;20.482;2023-08-06T07:16:00;11.82;;;10.45;;
21152;SDS011;10734;44.792;20.482;2023-08-06T07:18:26;12.45;;;11.10;;
21152;SDS011;10734;44.792;20.482;2023-08-06T07:20:53;11.63;;;10.45;;
21152;SDS011;10734;44.792;20.482;2023-08-06T07:23:20;13.45;;;11.40;;
21152;SDS011;10734;44.792;20.482;2023-08-06T07:25:47;13.90;;;11.52;;
21152;SDS011;10734;44.792;20.482;2023-08-06T07:28:14;12.27;;;11.05;;
21152;SDS011;10734;44.792;20.482;2023-08-06T07:30:41;13.73;;;11.63;;
21152;SDS011;10734;44.792;20.482;2023-08-06T07:33:08;11.02;;;10.02;;
21152;SDS011;10734;44.792;20.482;2023-08-06T07:35:35;11.27;;;10.07;;
21152;SDS011;10734;44.792;20.482;2023-08-06T07:38:02;12.05;;;10.85;;
21152;SDS011;10734;44.792;20.482;2023-08-06T07:40:29;12.35;;;10.27;;
21152;SDS011;10734;44.792;20.482;2023-08-06T07:42:55;10.63;;;9.57;;
21152;SDS011;10734;44.792;20.482;2023-08-06T07:45:22;10.00;;;8.32;;
21152;SDS011;10734;44.792;20.482;2023-08-06T07:47:48;9.32;;;8.27;;
21152;SDS011;10734;44.792;20.482;2023-08-06T07:50:15;10.15;;;8.10;;
21152;SDS011;10734;44.792;20.482;2023-08-06T07:52:42;13.45;;;8.70;;
21152;SDS011;10734;44.792;20.482;2023-08-06T07:55:08;10.65;;;8.32;;
21152;SDS011;10734;44.792;20.482;2023-08-06T07:57:35;15.98;;;7.85;;
21152;SDS011;10734;44.792;20.482;2023-08-06T08:00:01;10.18;;;6.32;;
21152;SDS011;10734;44.792;20.482;2023-08-06T08:02:28;11.65;;;6.35;;
21152;SDS011;10734;44.792;20.482;2023-08-06T08:04:56;5.90;;;5.40;;
21152;SDS011;10734;44.792;20.482;2023-08-06T08:07:23;4.95;;;4.45;;
21152;SDS011;10734;44.792;20.482;2023-08-06T08:09:49;4.90;;;4.35;;
21152;SDS011;10734;44.792;20.482;2023-08-06T08:12:16;8.77;;;3.75;;
21152;SDS011;10734;44.792;20.482;2023-08-06T08:14:42;4.55;;;3.10;;
21152;SDS011;10734;44.792;20.482;2023-08-06T08:17:11;13.73;;;2.88;;
21152;SDS011;10734;44.792;20.482;2023-08-06T08:19:39;5.45;;;2.72;;
21152;SDS011;10734;44.792;20.482;2023-08-06T08:22:05;2.30;;;2.10;;
21152;SDS011;10734;44.792;20.482;2023-08-06T08:24:32;3.85;;;1.65;;
21152;SDS011;10734;44.792;20.482;2023-08-06T08:26:58;2.90;;;1.85;;
21152;SDS011;10734;44.792;20.482;2023-08-06T08:29:25;1.85;;;1.63;;
21152;SDS011;10734;44.792;20.482;2023-08-06T08:31:52;1.83;;;1.30;;
21152;SDS011;10734;44.792;20.482;2023-08-06T08:34:19;2.63;;;1.52;;
21152;SDS011;10734;44.792;20.482;2023-08-06T08:36:46;2.90;;;1.83;;
21152;SDS011;10734;44.792;20.482;2023-08-06T08:39:13;4.40;;;1.48;;
21152;SDS011;10734;44.792;20.482;2023-08-06T08:41:40;4.22;;;1.73;;
21152;SDS011;10734;44.792;20.482;2023-08-06T08:44:10;3.38;;;1.25;;
21152;SDS011;10734;44.792;20.482;2023-08-06T08:46:40;5.20;;;1.58;;
21152;SDS011;10734;44.792;20.482;2023-08-06T08:49:07;2.20;;;1.20;;
21152;SDS011;10734;44.792;20.482;2023-08-06T08:51:33;1.80;;;1.10;;
21152;SDS011;10734;44.792;20.482;2023-08-06T08:54:04;3.00;;;1.30;;
21152;SDS011;10734;44.792;20.482;2023-08-06T08:56:31;9.00;;;1.50;;
21152;SDS011;10734;44.792;20.482;2023-08-06T08:58:58;1.65;;;0.95;;
21152;SDS011;10734;44.792;20.482;2023-08-06T09:01:25;1.17;;;1.08;;
21152;SDS011;10734;44.792;20.482;2023-08-06T09:03:52;3.53;;;1.60;;
21152;SDS011;10734;44.792;20.482;2023-08-06T09:06:20;2.00;;;1.60;;
21152;SDS011;10734;44.792;20.482;2023-08-06T09:08:53;3.55;;;1.10;;
21152;SDS011;10734;44.792;20.482;2023-08-06T09:11:21;4.40;;;1.30;;
21152;SDS011;10734;44.792;20.482;2023-08-06T09:13:47;1.65;;;1.27;;
21152;SDS011;10734;44.792;20.482;2023-08-06T09:16:14;2.60;;;1.42;;
21152;SDS011;10734;44.792;20.482;2023-08-06T09:18:40;1.67;;;1.17;;
21152;SDS011;10734;44.792;20.482;2023-08-06T09:21:08;4.75;;;1.23;;
21152;SDS011;10734;44.792;20.482;2023-08-06T09:23:41;2.03;;;1.20;;
21152;SDS011;10734;44.792;20.482;2023-08-06T09:26:10;1.27;;;1.10;;
21152;SDS011;10734;44.792;20.482;2023-08-06T09:28:40;1.42;;;1.30;;
21152;SDS011;10734;44.792;20.482;2023-08-06T09:31:09;4.00;;;1.00;;
21152;SDS011;10734;44.792;20.482;2023-08-06T09:33:37;1.30;;;1.10;;
21152;SDS011;10734;44.792;20.482;2023-08-06T09:36:09;2.25;;;1.25;;
21152;SDS011;10734;44.792;20.482;2023-08-06T09:38:40;2.17;;;1.23;;
21152;SDS011;10734;44.792;20.482;2023-08-06T09:41:07;1.70;;;1.10;;
21152;SDS011;10734;44.792;20.482;2023-08-06T09:43:43;1.60;;;1.10;;
21152;SDS011;10734;44.792;20.482;2023-08-06T09:46:13;3.78;;;1.30;;
21152;SDS011;10734;44.792;20.482;2023-08-06T09:48:40;1.80;;;1.50;;
21152;SDS011;10734;44.792;20.482;2023-08-06T09:51:08;1.05;;;0.90;;
21152;SDS011;10734;44.792;20.482;2023-08-06T09:53:35;4.90;;;1.20;;
21152;SDS011;10734;44.792;20.482;2023-08-06T09:56:02;3.70;;;1.30;;
21152;SDS011;10734;44.792;20.482;2023-08-06T09:58:29;4.07;;;1.60;;
21152;SDS011;10734;44.792;20.482;2023-08-06T10:00:56;5.80;;;1.35;;
21152;SDS011;10734;44.792;20.482;2023-08-06T10:03:23;2.08;;;1.30;;
21152;SDS011;10734;44.792;20.482;2023-08-06T10:05:50;1.15;;;1.05;;
21152;SDS011;10734;44.792;20.482;2023-08-06T10:08:16;2.20;;;1.30;;
21152;SDS011;10734;44.792;20.482;2023-08-06T10:10:43;2.30;;;1.08;;
21152;SDS011;10734;44.792;20.482;2023-08-06T10:13:10;2.35;;;1.35;;
21152;SDS011;10734;44.792;20.482;2023-08-06T10:15:38;2.00;;;1.33;;
21152;SDS011;10734;44.792;20.482;2023-08-06T10:18:05;4.32;;;1.13;;
21152;SDS011;10734;44.792;20.482;2023-08-06T10:20:36;2.08;;;1.27;;
21152;SDS011;10734;44.792;20.482;2023-08-06T10:23:03;1.08;;;0.90;;
21152;SDS011;10734;44.792;20.482;2023-08-06T10:25:32;2.08;;;1.10;;
21152;SDS011;10734;44.792;20.482;2023-08-06T10:28:00;3.63;;;1.10;;
21152;SDS011;10734;44.792;20.482;2023-08-06T10:30:46;4.25;;;1.20;;
21152;SDS011;10734;44.792;20.482;2023-08-06T10:33:14;3.58;;;1.05;;
21152;SDS011;10734;44.792;20.482;2023-08-06T10:35:43;3.35;;;1.05;;
21152;SDS011;10734;44.792;20.482;2023-08-06T10:41:00;1.95;;;0.80;;
21152;SDS011;10734;44.792;20.482;2023-08-06T10:43:35;2.90;;;1.00;;
21152;SDS011;10734;44.792;20.482;2023-08-06T10:46:09;1.23;;;0.88;;
21152;SDS011;10734;44.792;20.482;2023-08-06T10:48:38;4.50;;;1.10;;
21152;SDS011;10734;44.792;20.482;2023-08-06T10:51:10;4.22;;;0.90;;
21152;SDS011;10734;44.792;20.482;2023-08-06T10:53:38;0.70;;;0.70;;
21152;SDS011;10734;44.792;20.482;2023-08-06T10:56:15;2.33;;;0.85;;
21152;SDS011;10734;44.792;20.482;2023-08-06T10:58:43;3.53;;;0.88;;
21152;SDS011;10734;44.792;20.482;2023-08-06T11:01:11;1.10;;;1.00;;
21152;SDS011;10734;44.792;20.482;2023-08-06T11:03:38;3.35;;;1.00;;
21152;SDS011;10734;44.792;20.482;2023-08-06T11:06:09;1.60;;;0.80;;
21152;SDS011;10734;44.792;20.482;2023-08-06T11:08:37;2.05;;;0.90;;
21152;SDS011;10734;44.792;20.482;2023-08-06T11:11:10;1.02;;;0.90;;
21152;SDS011;10734;44.792;20.482;2023-08-06T11:13:39;3.45;;;0.98;;
21152;SDS011;10734;44.792;20.482;2023-08-06T11:18:37;3.67;;;0.90;;
21152;SDS011;10734;44.792;20.482;2023-08-06T11:21:04;1.63;;;0.90;;
21152;SDS011;10734;44.792;20.482;2023-08-06T11:23:31;2.63;;;1.05;;
21152;SDS011;10734;44.792;20.482;2023-08-06T11:25:58;3.00;;;1.17;;
21152;SDS011;10734;44.792;20.482;2023-08-06T11:28:26;1.33;;;0.90;;
21152;SDS011;10734;44.792;20.482;2023-08-06T11:30:53;1.60;;;0.98;;
21152;SDS011;10734;44.792;20.482;2023-08-06T11:35:48;1.10;;;1.00;;
21152;SDS011;10734;44.792;20.482;2023-08-06T11:38:15;2.13;;;1.15;;
21152;SDS011;10734;44.792;20.482;2023-08-06T11:40:45;1.75;;;1.20;;
21152;SDS011;10734;44.792;20.482;2023-08-06T11:43:13;1.60;;;1.20;;
21152;SDS011;10734;44.792;20.482;2023-08-06T11:45:40;2.67;;;0.93;;
21152;SDS011;10734;44.792;20.482;2023-08-06T11:48:07;2.55;;;1.23;;
21152;SDS011;10734;44.792;20.482;2023-08-06T11:50:38;4.28;;;1.17;;
21152;SDS011;10734;44.792;20.482;2023-08-06T11:53:05;2.85;;;1.00;;
21152;SDS011;10734;44.792;20.482;2023-08-06T11:55:32;3.35;;;1.20;;
21152;SDS011;10734;44.792;20.482;2023-08-06T11:58:02;1.95;;;0.95;;
21152;SDS011;10734;44.792;20.482;2023-08-06T12:00:30;0.80;;;0.80;;
21152;SDS011;10734;44.792;20.482;2023-08-06T12:02:57;1.10;;;0.80;;
21152;SDS011;10734;44.792;20.482;2023-08-06T12:05:31;2.72;;;1.00;;
21152;SDS011;10734;44.792;20.482;2023-08-06T12:08:02;1.10;;;0.88;;
21152;SDS011;10734;44.792;20.482;2023-08-06T12:10:30;1.42;;;0.80;;
21152;SDS011;10734;44.792;20.482;2023-08-06T12:13:10;2.35;;;1.00;;
21152;SDS011;10734;44.792;20.482;2023-08-06T12:15:37;1.25;;;0.85;;
21152;SDS011;10734;44.792;20.482;2023-08-06T12:18:04;1.40;;;0.70;;
21152;SDS011;10734;44.792;20.482;2023-08-06T12:20:30;0.93;;;0.75;;
21152;SDS011;10734;44.792;20.482;2023-08-06T12:22:57;0.98;;;0.90;;
21152;SDS011;10734;44.792;20.482;2023-08-06T12:25:23;0.98;;;0.70;;
21152;SDS011;10734;44.792;20.482;2023-08-06T12:27:50;1.98;;;0.90;;
21152;SDS011;10734;44.792;20.482;2023-08-06T12:30:17;5.35;;;0.70;;
21152;SDS011;10734;44.792;20.482;2023-08-06T12:32:43;0.80;;;0.75;;
21152;SDS011;10734;44.792;20.482;2023-08-06T12:35:10;3.45;;;0.80;;
21152;SDS011;10734;44.792;20.482;2023-08-06T12:37:36;2.58;;;0.80;;
21152;SDS011;10734;44.792;20.482;2023-08-06T12:40:05;2.65;;;0.70;;
21152;SDS011;10734;44.792;20.482;2023-08-06T12:42:51;1.13;;;0.60;;
21152;SDS011;10734;44.792;20.482;2023-08-06T12:45:18;2.25;;;0.93;;
21152;SDS011;10734;44.792;20.482;2023-08-06T12:47:47;1.75;;;0.80;;
21152;SDS011;10734;44.792;20.482;2023-08-06T12:50:16;2.25;;;0.70;;
21152;SDS011;10734;44.792;20.482;2023-08-06T12:52:44;1.33;;;0.88;;
21152;SDS011;10734;44.792;20.482;2023-08-06T12:55:10;3.40;;;0.93;;
21152;SDS011;10734;44.792;20.482;2023-08-06T12:57:49;4.32;;;1.25;;
21152;SDS011;10734;44.792;20.482;2023-08-06T13:00:25;2.97;;;0.95;;
21152;SDS011;10734;44.792;20.482;2023-08-06T13:02:52;2.85;;;1.00;;
21152;SDS011;10734;44.792;20.482;2023-08-06T13:05:18;2.47;;;0.85;;
21152;SDS011;10734;44.792;20.482;2023-08-06T13:07:46;3.80;;;0.93;;
21152;SDS011;10734;44.792;20.482;2023-08-06T13:10:13;2.40;;;0.93;;
21152;SDS011;10734;44.792;20.482;2023-08-06T13:12:39;4.20;;;1.23;;
21152;SDS011;10734;44.792;20.482;2023-08-06T13:15:06;2.05;;;0.98;;
21152;SDS011;10734;44.792;20.482;2023-08-06T13:17:34;2.13;;;1.23;;
21152;SDS011;10734;44.792;20.482;2023-08-06T13:20:00;2.28;;;1.17;;
21152;SDS011;10734;44.792;20.482;2023-08-06T13:22:27;1.60;;;0.90;;
21152;SDS011;10734;44.792;20.482;2023-08-06T13:24:54;3.78;;;1.20;;
21152;SDS011;10734;44.792;20.482;2023-08-06T13:27:21;3.85;;;0.90;;
21152;SDS011;10734;44.792;20.482;2023-08-06T13:29:47;1.60;;;1.08;;
21152;SDS011;10734;44.792;20.482;2023-08-06T13:32:14;3.40;;;1.67;;
21152;SDS011;10734;44.792;20.482;2023-08-06T13:34:41;4.97;;;1.90;;
21152;SDS011;10734;44.792;20.482;2023-08-06T13:37:08;3.05;;;1.98;;
21152;SDS011;10734;44.792;20.482;2023-08-06T13:39:34;3.55;;;3.00;;
21152;SDS011;10734;44.792;20.482;2023-08-06T13:42:01;2.85;;;2.60;;
21152;SDS011;10734;44.792;20.482;2023-08-06T13:44:28;4.20;;;2.72;;
21152;SDS011;10734;44.792;20.482;2023-08-06T13:46:55;4.18;;;3.00;;
21152;SDS011;10734;44.792;20.482;2023-08-06T13:49:22;2.80;;;2.50;;
21152;SDS011;10734;44.792;20.482;2023-08-06T13:51:49;7.25;;;2.40;;
21152;SDS011;10734;44.792;20.482;2023-08-06T13:54:15;3.38;;;2.30;;
21152;SDS011;10734;44.792;20.482;2023-08-06T13:56:43;3.08;;;2.30;;
21152;SDS011;10734;44.792;20.482;2023-08-06T13:59:09;2.80;;;2.38;;
21152;SDS011;10734;44.792;20.482;2023-08-06T14:01:39;5.07;;;3.70;;
21152;SDS011;10734;44.792;20.482;2023-08-06T14:04:17;5.15;;;2.63;;
21152;SDS011;10734;44.792;20.482;2023-08-06T14:06:44;5.25;;;1.95;;
21152;SDS011;10734;44.792;20.482;2023-08-06T14:09:10;10.77;;;2.80;;
21152;SDS011;10734;44.792;20.482;2023-08-06T14:11:40;8.52;;;2.88;;
21152;SDS011;10734;44.792;20.482;2023-08-06T14:14:07;10.00;;;1.95;;
21152;SDS011;10734;44.792;20.482;2023-08-06T14:16:34;4.03;;;1.55;;
21152;SDS011;10734;44.792;20.482;2023-08-06T14:19:00;4.65;;;1.50;;
21152;SDS011;10734;44.792;20.482;2023-08-06T14:21:27;8.48;;;2.05;;
21152;SDS011;10734;44.792;20.482;2023-08-06T14:23:53;12.77;;;3.00;;
21152;SDS011;10734;44.792;20.482;2023-08-06T14:26:20;5.05;;;1.90;;
21152;SDS011;10734;44.792;20.482;2023-08-06T14:28:46;4.88;;;2.35;;
21152;SDS011;10734;44.792;20.482;2023-08-06T14:31:13;10.35;;;2.53;;
21152;SDS011;10734;44.792;20.482;2023-08-06T14:33:39;6.25;;;1.77;;
21152;SDS011;10734;44.792;20.482;2023-08-06T14:36:06;6.97;;;2.05;;
21152;SDS011;10734;44.792;20.482;2023-08-06T14:38:32;5.75;;;2.10;;
21152;SDS011;10734;44.792;20.482;2023-08-06T14:41:08;4.20;;;1.90;;
21152;SDS011;10734;44.792;20.482;2023-08-06T14:43:34;8.02;;;1.55;;
21152;SDS011;10734;44.792;20.482;2023-08-06T14:46:01;3.67;;;1.60;;